Terminal Aerodrome Forecast
Issued by NWS Wilmington, NC

Home | Current Version | Previous Version | Text Only | Print | Product List | Glossary On
Versions: 1 2 3 4 5 6 7 8 9 10 11 12 13 14 15 16 17 18 19 20 21
000
FTUS42 KILM 221500 AAB
TAFMYR
TAF AMD
KMYR 221531Z 2216/2312 01006KT P6SM VCSH SCT004 SCT015
      TEMPO 2216/2218 5SM RA BR BKN015 BKN060
     FM221800 15009KT 6SM SHRA FEW015 SCT030 BKN120
     FM230000 18005KT P6SM FEW020 BKN150
     FM230600 VRB04KT P6SM SCT025 BKN150=

USA.gov is the U.S. government's official web portal to all federal, state and local government web resources and services.